Producer — WDH9695 — position and weather

sailwx.info

Track history (hours):
 
Tides and Currents Weather Stations Pressure Air Temp Water Temp Dewpoint Dewpoint Depression Visibility Wind Speed Wind Dir Waves Ship Positions

Producer

Owner: Pro Sportfishing, San Diego, CA, CA. More information available from US FCC via Universal Licensing System and Coast Guard Vessel Documentation Center.

Last reported at 2018-Jun-10 05:42 UTC. Time now 2018-Jun-19 17:55 UTC.
Position N 32°39' W 117°27'.
Warning: this ship's position is 9 days out of date.

Type: Passenger vessel. MMSI: 367033990.

Date/timePositionNaut miles runAvg speedWind from/ knotsBaromVisibWave heightAir tempDewpointWater temp
2018-Jun-10 05:42N 32°39' W 117°27'1 7.3
2018-Jun-10 05:30N 32°39' W 117°28'3 6.5
2018-Jun-10 05:00N 32°39' W 117°32'3 6.5
2018-Jun-10 04:30N 32°40' W 117°36'5 7.0
2018-Jun-10 03:49N 32°42' W 117°41'13 2.3
2018-Jun-09 21:59N 32°31' W 117°51'6 5.3
2018-Jun-09 20:56N 32°26' W 117°47'3 5.5
2018-Jun-09 20:29N 32°24' W 117°46'4 7.5
2018-Jun-09 19:59N 32°21' W 117°49'0 0.1
2018-Jun-09 15:32N 32°20' W 117°48'0 0.4
2018-Jun-09 15:27N 32°20' W 117°48'1 0.6
2018-Jun-09 14:22N 32°20' W 117°48'1 2.8
2018-Jun-09 13:56N 32°19' W 117°47'0 0.9
2018-Jun-09 13:28N 32°19' W 117°47'3 6.1
2018-Jun-09 12:59N 32°17' W 117°44'3 6.7
2018-Jun-09 12:30N 32°17' W 117°40'  
2018-Jun-03 05:29N 32°27' W 117°25'3 6.7
2018-Jun-03 05:00N 32°24' W 117°27'3 6.7
2018-Jun-03 04:28N 32°22' W 117°30'3 6.5
2018-Jun-03 04:00N 32°20' W 117°33'3 6.5
2018-Jun-03 03:30N 32°17' W 117°34'8 5.7
2018-Jun-03 02:03N 32°12' W 117°26'1 7.6
2018-Jun-03 01:59N 32°12' W 117°26'5 4.3
2018-Jun-03 00:50N 32°08' W 117°29'3 7.5
2018-Jun-03 00:27N 32°08' W 117°33'3 5.7
2018-Jun-02 23:58N 32°11' W 117°31'4 0.3
2018-Jun-02 13:35N 32°12' W 117°35'2 0.5
2018-Jun-02 10:03N 32°10' W 117°35'  
Track history (hours):
 
Tides and Currents Weather Stations Pressure Air Temp Water Temp Dewpoint Dewpoint Depression Visibility Wind Speed Wind Dir Waves Ship Positions

Producer

Owner: Pro Sportfishing, San Diego, CA, CA. More information available from US FCC via Universal Licensing System and Coast Guard Vessel Documentation Center.

Last reported at 2018-Jun-10 05:42 UTC. Time now 2018-Jun-19 17:55 UTC.
Position N 32°39' W 117°27'.
Warning: this ship's position is 9 days out of date.

Type: Passenger vessel. MMSI: 367033990.

Date/timePositionNaut miles runAvg speedWind from/ knotsBaromVisibWave heightAir tempDewpointWater temp
2018-Jun-10 05:42N 32°39' W 117°27'1 7.3
2018-Jun-10 05:30N 32°39' W 117°28'3 6.5
2018-Jun-10 05:00N 32°39' W 117°32'3 6.5
2018-Jun-10 04:30N 32°40' W 117°36'5 7.0
2018-Jun-10 03:49N 32°42' W 117°41'13 2.3
2018-Jun-09 21:59N 32°31' W 117°51'6 5.3
2018-Jun-09 20:56N 32°26' W 117°47'3 5.5
2018-Jun-09 20:29N 32°24' W 117°46'4 7.5
2018-Jun-09 19:59N 32°21' W 117°49'0 0.1
2018-Jun-09 15:32N 32°20' W 117°48'0 0.4
2018-Jun-09 15:27N 32°20' W 117°48'1 0.6
2018-Jun-09 14:22N 32°20' W 117°48'1 2.8
2018-Jun-09 13:56N 32°19' W 117°47'0 0.9
2018-Jun-09 13:28N 32°19' W 117°47'3 6.1
2018-Jun-09 12:59N 32°17' W 117°44'3 6.7
2018-Jun-09 12:30N 32°17' W 117°40'  
2018-Jun-03 05:29N 32°27' W 117°25'3 6.7
2018-Jun-03 05:00N 32°24' W 117°27'3 6.7
2018-Jun-03 04:28N 32°22' W 117°30'3 6.5
2018-Jun-03 04:00N 32°20' W 117°33'3 6.5
2018-Jun-03 03:30N 32°17' W 117°34'8 5.7
2018-Jun-03 02:03N 32°12' W 117°26'1 7.6
2018-Jun-03 01:59N 32°12' W 117°26'5 4.3
2018-Jun-03 00:50N 32°08' W 117°29'3 7.5
2018-Jun-03 00:27N 32°08' W 117°33'3 5.7
2018-Jun-02 23:58N 32°11' W 117°31'4 0.3
2018-Jun-02 13:35N 32°12' W 117°35'2 0.5
2018-Jun-02 10:03N 32°10' W 117°35'  

Dump ship's entire track history